createdAt,value
2019-05-22T00:01:56.806Z,21.67
2019-05-22T00:04:28.415Z,23.63
2019-05-22T00:07:01.520Z,27.23
2019-05-22T00:09:36.307Z,31.70
2019-05-22T00:12:09.026Z,27.40
2019-05-22T00:14:40.474Z,20.83
2019-05-22T00:17:15.337Z,23.83
2019-05-22T00:19:45.934Z,22.93
2019-05-22T00:22:27.426Z,21.53
2019-05-22T00:24:58.480Z,21.83
2019-05-22T00:27:30.462Z,18.80
2019-05-22T00:30:02.112Z,27.33
2019-05-22T00:32:31.130Z,24.13
2019-05-22T00:35:01.222Z,28.07
2019-05-22T00:37:31.011Z,22.53
2019-05-22T00:40:00.587Z,25.17
2019-05-22T00:42:31.962Z,22.90
2019-05-22T00:45:02.454Z,22.97
2019-05-22T00:47:33.906Z,27.50
2019-05-22T00:50:08.371Z,25.30
2019-05-22T00:52:46.335Z,22.50
2019-05-22T00:55:33.391Z,27.30
2019-05-22T00:58:13.651Z,24.37
2019-05-22T01:00:45.185Z,29.57
2019-05-22T01:03:18.718Z,19.07
2019-05-22T01:05:49.100Z,26.63
2019-05-22T01:08:18.638Z,24.60
2019-05-22T01:10:50.766Z,29.17
2019-05-22T01:13:21.466Z,24.60
2019-05-22T01:15:52.030Z,24.40
2019-05-22T01:18:25.429Z,22.67
2019-05-22T01:20:58.494Z,24.00
2019-05-22T01:23:30.786Z,24.40
2019-05-22T01:26:01.554Z,26.97
2019-05-22T01:28:32.618Z,24.07
2019-05-22T01:31:08.753Z,22.33
2019-05-22T01:34:13.188Z,25.83
2019-05-22T01:36:45.499Z,27.27
2019-05-22T01:39:36.494Z,24.33
2019-05-22T01:42:08.401Z,25.50
2019-05-22T01:44:37.990Z,22.90
2019-05-22T01:47:13.323Z,26.20
2019-05-22T01:49:51.754Z,23.77
2019-05-22T01:52:21.242Z,19.57
2019-05-22T01:54:52.312Z,19.57
2019-05-22T01:57:23.577Z,21.93
2019-05-22T01:59:53.970Z,22.63
2019-05-22T02:02:26.124Z,23.13
2019-05-22T02:04:58.461Z,25.40
2019-05-22T02:07:28.991Z,24.30
2019-05-22T02:09:59.490Z,19.50
2019-05-22T02:12:41.112Z,19.00
2019-05-22T02:15:11.117Z,19.23
2019-05-22T02:17:41.739Z,17.40
2019-05-22T02:20:11.130Z,16.73
2019-05-22T02:22:40.575Z,19.53
2019-05-22T02:25:09.855Z,17.93
2019-05-22T02:27:40.556Z,16.17
2019-05-22T02:30:10.838Z,12.10
2019-05-22T02:32:41.028Z,14.93
2019-05-22T02:35:11.118Z,11.77
2019-05-22T02:37:41.703Z,13.03
2019-05-22T02:40:17.483Z,12.07
2019-05-22T02:42:47.399Z,14.77
2019-05-22T02:45:17.427Z,13.53
2019-05-22T02:47:46.603Z,14.33
2019-05-22T02:50:16.098Z,13.50
2019-05-22T02:52:45.171Z,12.97
2019-05-22T02:55:14.343Z,14.70
2019-05-22T02:57:43.851Z,16.03
2019-05-22T03:00:14.419Z,13.03
2019-05-22T03:02:53.310Z,15.60
2019-05-22T03:05:24.795Z,11.77
2019-05-22T03:07:54.619Z,13.17
2019-05-22T03:10:26.616Z,13.40
2019-05-22T03:12:56.734Z,13.67
2019-05-22T03:15:27.703Z,16.27
2019-05-22T03:18:01.602Z,15.00
2019-05-22T03:20:33.952Z,12.40
2019-05-22T03:23:34.803Z,15.87
2019-05-22T03:26:05.659Z,12.87
2019-05-22T03:28:35.566Z,14.13
2019-05-22T03:31:06.473Z,13.33
2019-05-22T03:33:35.555Z,15.80
2019-05-22T03:36:09.580Z,16.97
2019-05-22T03:38:40.845Z,18.13
2019-05-22T03:41:11.978Z,18.37
2019-05-22T03:43:44.983Z,21.57
2019-05-22T03:46:38.756Z,18.63
2019-05-22T03:49:28.053Z,20.13
2019-05-22T03:51:42.650Z,18.07
2019-05-22T03:54:12.744Z,19.80
2019-05-22T03:56:42.640Z,18.47
2019-05-22T03:59:12.794Z,23.37
2019-05-22T04:01:43.555Z,19.57
2019-05-22T04:04:16.226Z,21.70
2019-05-22T04:06:45.363Z,19.17
2019-05-22T04:09:20.219Z,16.00
2019-05-22T04:11:50.438Z,19.87
2019-05-22T04:14:21.528Z,19.30
2019-05-22T04:16:51.694Z,23.70
2019-05-22T04:19:21.328Z,20.33
2019-05-22T04:21:50.421Z,19.13
2019-05-22T04:24:20.486Z,17.40
2019-05-22T04:26:50.270Z,23.87
2019-05-22T04:29:19.330Z,19.97
2019-05-22T04:32:09.180Z,30.33
2019-05-22T04:34:38.209Z,18.83
2019-05-22T04:37:09.080Z,25.27
2019-05-22T04:39:41.429Z,24.03
2019-05-22T04:42:11.821Z,24.23
2019-05-22T04:44:59.012Z,23.07
2019-05-22T04:47:28.075Z,26.47
2019-05-22T04:50:07.678Z,26.67
2019-05-22T04:52:28.706Z,34.63
2019-05-22T04:54:58.979Z,29.93
2019-05-22T04:57:28.214Z,31.37
2019-05-22T04:59:57.166Z,36.43
2019-05-22T05:02:26.751Z,31.07
2019-05-22T05:04:55.776Z,33.87
2019-05-22T05:07:25.775Z,32.97
2019-05-22T05:09:54.889Z,30.43
2019-05-22T05:12:24.384Z,39.97
2019-05-22T05:14:53.691Z,31.10
2019-05-22T05:17:23.290Z,32.60
2019-05-22T05:19:52.305Z,31.83
2019-05-22T05:22:29.094Z,34.83
2019-05-22T05:24:57.978Z,32.63
2019-05-22T05:27:28.003Z,33.07
2019-05-22T05:29:56.938Z,34.67
2019-05-22T05:32:26.634Z,27.40
2019-05-22T05:35:00.718Z,30.17
2019-05-22T05:37:29.914Z,34.83
2019-05-22T05:40:29.569Z,30.87
2019-05-22T05:42:59.774Z,35.87
2019-05-22T05:45:30.476Z,28.93
2019-05-22T05:48:00.077Z,33.40
2019-05-22T05:50:38.961Z,28.93
2019-05-22T05:53:01.882Z,32.23
2019-05-22T05:55:44.044Z,28.63
2019-05-22T05:58:32.770Z,31.17
2019-05-22T06:01:17.168Z,31.47
2019-05-22T06:03:46.384Z,30.63
2019-05-22T06:07:02.937Z,35.10
2019-05-22T06:09:32.423Z,36.57
2019-05-22T06:12:05.754Z,37.50
2019-05-22T06:14:36.282Z,29.40
2019-05-22T06:18:00.919Z,38.87
2019-05-22T06:20:31.188Z,29.30
2019-05-22T06:23:52.150Z,31.90
2019-05-22T06:26:31.502Z,28.30
2019-05-22T06:29:00.454Z,35.97
2019-05-22T06:31:41.791Z,35.53
2019-05-22T06:34:11.220Z,32.60
2019-05-22T06:36:42.070Z,39.77
2019-05-22T06:39:13.753Z,33.53
2019-05-22T06:41:43.975Z,32.50
2019-05-22T06:44:40.739Z,38.50
2019-05-22T06:47:13.095Z,38.13
2019-05-22T06:49:47.605Z,31.30
2019-05-22T06:52:16.899Z,32.13
2019-05-22T06:54:46.212Z,38.60
2019-05-22T06:57:28.450Z,36.20
2019-05-22T07:00:21.579Z,37.10
2019-05-22T07:02:51.321Z,41.40
2019-05-22T07:05:20.626Z,46.97
2019-05-22T07:07:49.923Z,43.20
2019-05-22T07:10:20.601Z,41.27
2019-05-22T07:12:50.698Z,38.77
2019-05-22T07:15:43.878Z,39.27
2019-05-22T07:18:14.568Z,37.10
2019-05-22T07:20:45.700Z,41.03
2019-05-22T07:23:20.485Z,40.53
2019-05-22T07:25:50.008Z,40.40
2019-05-22T07:28:20.226Z,42.47
2019-05-22T07:30:50.958Z,45.43
2019-05-22T07:33:20.807Z,50.23
2019-05-22T07:36:08.386Z,41.93
2019-05-22T07:38:21.133Z,40.33
2019-05-22T07:40:51.874Z,35.03
2019-05-22T07:43:22.283Z,34.97
2019-05-22T07:45:52.696Z,34.23
2019-05-22T07:48:25.652Z,35.07
2019-05-22T07:50:55.298Z,34.50
2019-05-22T07:53:26.423Z,36.77
2019-05-22T07:55:57.652Z,31.00
2019-05-22T07:58:29.522Z,30.53
2019-05-22T08:01:00.527Z,30.93
2019-05-22T08:03:31.809Z,34.90
2019-05-22T08:06:01.390Z,31.20
2019-05-22T08:08:32.978Z,32.33
2019-05-22T08:11:02.012Z,26.67
2019-05-22T08:13:32.197Z,33.33
2019-05-22T08:16:02.254Z,32.50
2019-05-22T08:18:33.747Z,27.30
2019-05-22T08:21:02.972Z,29.17
2019-05-22T08:23:32.541Z,33.37
2019-05-22T08:26:01.574Z,33.50
2019-05-22T08:28:32.943Z,34.23
2019-05-22T08:31:03.395Z,33.23
2019-05-22T08:33:35.029Z,34.27
2019-05-22T08:36:04.742Z,30.03
2019-05-22T08:38:34.755Z,31.17
2019-05-22T08:41:06.862Z,35.90
2019-05-22T08:44:03.277Z,31.23
2019-05-22T08:46:08.691Z,29.83
2019-05-22T08:48:46.943Z,31.00
2019-05-22T08:51:12.365Z,36.10
2019-05-22T08:53:47.533Z,26.73
2019-05-22T08:56:12.988Z,28.53
2019-05-22T08:58:44.273Z,28.60
2019-05-22T09:01:14.405Z,27.23
2019-05-22T09:03:43.840Z,29.30
2019-05-22T09:06:13.172Z,30.93
2019-05-22T09:09:01.360Z,29.23
2019-05-22T09:11:30.350Z,30.90
2019-05-22T09:13:59.450Z,27.80
2019-05-22T09:16:29.147Z,33.20
2019-05-22T09:18:58.906Z,34.83
2019-05-22T09:21:28.075Z,29.70
2019-05-22T09:23:57.106Z,31.37
2019-05-22T09:26:26.818Z,33.87
2019-05-22T09:28:55.840Z,32.73
2019-05-22T09:31:24.844Z,36.13
2019-05-22T09:33:54.666Z,30.73
2019-05-22T09:36:23.603Z,32.50
2019-05-22T09:38:52.945Z,35.20
2019-05-22T09:41:21.917Z,30.63
2019-05-22T09:43:51.170Z,33.93
2019-05-22T09:46:20.503Z,34.57
2019-05-22T09:48:49.610Z,29.40
2019-05-22T09:51:19.540Z,28.63
2019-05-22T09:53:48.886Z,29.33
2019-05-22T09:56:18.126Z,30.00
2019-05-22T09:58:47.138Z,27.27
2019-05-22T10:01:16.622Z,33.07
2019-05-22T10:03:45.704Z,37.60
2019-05-22T10:06:15.111Z,33.30
2019-05-22T10:08:44.210Z,33.10
2019-05-22T10:11:13.255Z,31.40
2019-05-22T10:13:42.260Z,29.77
2019-05-22T10:16:11.680Z,28.43
2019-05-22T10:18:41.402Z,31.97
2019-05-22T10:21:11.098Z,31.60
2019-05-22T10:23:41.035Z,28.40
2019-05-22T10:26:11.002Z,23.73
2019-05-22T10:28:40.895Z,27.27
2019-05-22T10:31:11.326Z,24.60
2019-05-22T10:33:41.611Z,23.37
2019-05-22T10:36:10.856Z,24.80
2019-05-22T10:38:39.869Z,22.60
2019-05-22T10:41:09.830Z,22.27
2019-05-22T10:43:39.624Z,29.80
2019-05-22T10:46:09.463Z,23.63
2019-05-22T10:48:40.570Z,25.40
2019-05-22T10:51:09.994Z,27.37
2019-05-22T10:53:39.757Z,23.93
2019-05-22T10:56:08.909Z,23.57
2019-05-22T10:58:38.935Z,25.73
2019-05-22T11:01:09.836Z,24.73
2019-05-22T11:03:39.028Z,23.23
2019-05-22T11:06:08.637Z,24.23
2019-05-22T11:08:38.215Z,23.33
2019-05-22T11:11:08.120Z,24.73
2019-05-22T11:13:37.908Z,27.70
2019-05-22T11:16:08.184Z,33.07
2019-05-22T11:18:37.206Z,32.30
2019-05-22T11:21:06.800Z,38.40
2019-05-22T11:23:50.327Z,39.50
2019-05-22T11:26:06.966Z,36.73
2019-05-22T11:28:35.983Z,35.93
2019-05-22T11:31:05.979Z,33.47
2019-05-22T11:33:35.651Z,35.57
2019-05-22T11:36:05.459Z,34.20
2019-05-22T11:38:34.545Z,37.90
2019-05-22T11:41:04.646Z,34.17
2019-05-22T11:43:34.740Z,34.50
2019-05-22T11:46:04.842Z,32.63
2019-05-22T11:48:34.450Z,34.27
2019-05-22T11:51:04.427Z,37.13
2019-05-22T11:53:33.437Z,32.67
2019-05-22T11:56:02.692Z,35.50
2019-05-22T11:58:32.428Z,37.73
2019-05-22T12:01:01.932Z,37.83
2019-05-22T12:03:33.026Z,34.37
2019-05-22T12:06:03.020Z,33.90
2019-05-22T12:08:33.153Z,33.50
2019-05-22T12:11:03.162Z,31.73
2019-05-22T12:13:32.685Z,31.63
2019-05-22T12:16:04.168Z,34.13
2019-05-22T12:18:33.623Z,33.53
2019-05-22T12:21:03.426Z,32.83
2019-05-22T12:23:33.896Z,33.73
2019-05-22T12:26:02.822Z,37.23
2019-05-22T12:28:31.842Z,35.80
2019-05-22T12:31:00.851Z,34.00
2019-05-22T12:33:30.620Z,36.33
2019-05-22T12:36:00.175Z,30.00
2019-05-22T12:38:31.066Z,35.27
2019-05-22T12:41:00.311Z,34.27
2019-05-22T12:43:31.078Z,35.83
2019-05-22T12:46:00.132Z,39.93
2019-05-22T12:48:29.763Z,37.70
2019-05-22T12:50:59.356Z,30.30
2019-05-22T12:53:29.346Z,34.07
2019-05-22T12:55:59.677Z,37.07
2019-05-22T12:58:29.098Z,30.83
2019-05-22T13:00:59.725Z,25.70
2019-05-22T13:03:29.918Z,31.87
2019-05-22T13:05:59.467Z,32.57
2019-05-22T13:08:29.348Z,29.70
2019-05-22T13:10:59.479Z,31.60
2019-05-22T13:13:28.975Z,29.47
2019-05-22T13:16:00.406Z,29.30
2019-05-22T13:18:31.607Z,32.50
2019-05-22T13:21:03.078Z,34.10
2019-05-22T13:23:38.078Z,31.60
2019-05-22T13:26:07.978Z,27.77
2019-05-22T13:28:39.226Z,30.10
2019-05-22T13:31:10.138Z,28.93
2019-05-22T13:33:42.036Z,24.90
2019-05-22T13:36:13.033Z,26.70
2019-05-22T13:38:42.843Z,25.77
2019-05-22T13:41:12.623Z,20.80
2019-05-22T13:43:42.024Z,23.17
2019-05-22T13:46:11.148Z,22.07
2019-05-22T13:48:40.238Z,20.50
2019-05-22T13:51:11.646Z,19.63
2019-05-22T13:53:42.406Z,18.70
2019-05-22T13:56:13.237Z,17.83
2019-05-22T13:58:43.503Z,15.10
2019-05-22T14:01:12.816Z,15.83
2019-05-22T14:03:42.004Z,18.00
2019-05-22T14:06:12.036Z,18.03
2019-05-22T14:09:00.267Z,16.20
2019-05-22T14:11:29.298Z,17.20
2019-05-22T14:13:58.679Z,16.63
2019-05-22T14:16:28.688Z,17.57
2019-05-22T14:18:57.772Z,16.73
2019-05-22T14:21:27.122Z,22.83
2019-05-22T14:23:56.047Z,22.63
2019-05-22T14:26:25.150Z,24.77
2019-05-22T14:28:54.348Z,24.60
2019-05-22T14:31:23.346Z,23.13
2019-05-22T14:33:52.443Z,21.53
2019-05-22T14:36:21.694Z,24.43
2019-05-22T14:38:50.964Z,19.55
2019-05-22T14:41:20.451Z,19.70
2019-05-22T14:43:49.567Z,14.33
2019-05-22T14:46:19.097Z,14.57
2019-05-22T14:48:48.848Z,14.63
2019-05-22T14:51:20.024Z,14.27
2019-05-22T14:53:52.272Z,11.27
2019-05-22T14:56:22.126Z,9.80
2019-05-22T14:58:51.526Z,10.60
2019-05-22T15:01:21.741Z,12.10
2019-05-22T15:03:51.110Z,13.32
2019-05-22T15:06:20.743Z,10.47
2019-05-22T15:08:49.898Z,10.13
2019-05-22T15:11:19.717Z,12.33
2019-05-22T15:13:49.129Z,10.77
2019-05-22T15:16:18.240Z,10.30
2019-05-22T15:18:47.230Z,10.00
2019-05-22T15:21:18.174Z,11.45
2019-05-22T15:23:48.702Z,11.10
2019-05-22T15:26:18.378Z,10.47
2019-05-22T15:28:47.717Z,10.93
2019-05-22T15:31:17.228Z,10.72
2019-05-22T15:33:46.318Z,8.93
2019-05-22T15:36:19.118Z,11.20
2019-05-22T15:38:49.683Z,12.05
2019-05-22T15:41:19.601Z,12.13
2019-05-22T15:43:52.958Z,14.75
2019-05-22T15:46:21.622Z,14.23
2019-05-22T15:48:53.418Z,12.65
2019-05-22T15:51:27.898Z,11.95
2019-05-22T15:54:00.374Z,15.30
2019-05-22T15:56:31.686Z,16.53
2019-05-22T15:59:02.762Z,11.17
2019-05-22T16:01:35.363Z,10.77
2019-05-22T16:04:06.172Z,15.27
2019-05-22T16:06:35.768Z,12.40
2019-05-22T16:09:08.219Z,14.43
2019-05-22T16:11:37.514Z,12.70
2019-05-22T16:14:07.619Z,13.77
2019-05-22T16:16:37.335Z,11.97
2019-05-22T16:19:09.137Z,11.83
2019-05-22T16:21:42.025Z,11.20
2019-05-22T16:24:11.776Z,11.47
2019-05-22T16:26:42.338Z,11.20
2019-05-22T16:29:12.551Z,11.07
2019-05-22T16:31:43.527Z,11.90
2019-05-22T16:34:13.173Z,12.53
2019-05-22T16:36:44.703Z,9.20
2019-05-22T16:39:15.803Z,11.23
2019-05-22T16:41:44.886Z,10.97
2019-05-22T16:44:14.867Z,11.63
2019-05-22T16:46:44.968Z,8.73
2019-05-22T16:49:14.931Z,9.70
2019-05-22T16:51:45.470Z,9.23
2019-05-22T16:54:20.450Z,10.00
2019-05-22T16:56:47.398Z,9.10
2019-05-22T16:59:18.745Z,10.20
2019-05-22T17:01:58.629Z,10.00
2019-05-22T17:04:19.297Z,12.00
2019-05-22T17:06:49.011Z,9.30
2019-05-22T17:09:19.283Z,11.80
2019-05-22T17:11:49.290Z,11.17
2019-05-22T17:14:20.879Z,9.40
2019-05-22T17:16:51.461Z,11.10
2019-05-22T17:19:27.036Z,11.13
2019-05-22T17:21:52.484Z,11.87
2019-05-22T17:24:22.945Z,11.67
2019-05-22T17:26:53.531Z,9.17
2019-05-22T17:29:23.076Z,11.27
2019-05-22T17:31:52.370Z,11.73
2019-05-22T17:34:37.618Z,13.13
2019-05-22T17:37:13.755Z,13.37
2019-05-22T17:39:45.420Z,10.03
2019-05-22T17:42:21.248Z,9.63
2019-05-22T17:44:52.754Z,9.00
2019-05-22T17:47:24.730Z,13.70
2019-05-22T17:49:54.411Z,10.40
2019-05-22T17:52:24.418Z,10.58
2019-05-22T17:54:53.484Z,11.10
2019-05-22T17:57:24.048Z,10.07
2019-05-22T17:59:54.464Z,11.60
2019-05-22T18:02:26.142Z,13.97
2019-05-22T18:04:55.577Z,11.97
2019-05-22T18:07:25.339Z,13.07
2019-05-22T18:09:55.021Z,12.70
2019-05-22T18:12:24.599Z,12.03
2019-05-22T18:14:54.175Z,12.97
2019-05-22T18:17:24.052Z,12.37
2019-05-22T18:19:53.545Z,13.90
2019-05-22T18:22:22.471Z,12.93
2019-05-22T18:24:51.614Z,11.70
2019-05-22T18:27:20.857Z,14.47
2019-05-22T18:30:02.078Z,13.10
2019-05-22T18:32:34.061Z,11.77
2019-05-22T18:35:03.061Z,14.07
2019-05-22T18:37:31.986Z,13.30
2019-05-22T18:40:01.096Z,16.20
2019-05-22T18:42:30.318Z,11.80
2019-05-22T18:44:59.441Z,14.03
2019-05-22T18:47:28.460Z,9.93
2019-05-22T18:49:57.478Z,12.17
2019-05-22T18:52:40.034Z,13.00
2019-05-22T18:54:57.146Z,14.37
2019-05-22T18:57:26.128Z,14.67
2019-05-22T19:00:01.136Z,12.87
2019-05-22T19:02:26.494Z,14.17
2019-05-22T19:04:55.677Z,14.27
2019-05-22T19:07:25.075Z,13.37
2019-05-22T19:09:54.576Z,12.80
2019-05-22T19:12:23.921Z,11.23
2019-05-22T19:14:53.135Z,12.50
2019-05-22T19:17:22.606Z,14.43
2019-05-22T19:19:51.717Z,14.73
2019-05-22T19:22:21.433Z,12.47
2019-05-22T19:24:50.434Z,13.23
2019-05-22T19:27:19.610Z,14.63
2019-05-22T19:29:48.535Z,13.23
2019-05-22T19:32:17.802Z,14.00
2019-05-22T19:34:46.776Z,13.63
2019-05-22T19:37:16.533Z,12.60
2019-05-22T19:40:06.590Z,13.03
2019-05-22T19:42:35.910Z,17.23
2019-05-22T19:45:05.469Z,16.77
2019-05-22T19:47:35.998Z,14.27
2019-05-22T19:50:22.012Z,20.70
2019-05-22T19:52:42.144Z,20.70
2019-05-22T19:55:14.036Z,16.77
2019-05-22T19:57:44.078Z,18.53
2019-05-22T20:00:14.374Z,19.60
2019-05-22T20:02:43.609Z,22.23
2019-05-22T20:05:13.211Z,15.33
2019-05-22T20:07:42.716Z,17.77
2019-05-22T20:10:13.046Z,17.37
2019-05-22T20:12:43.830Z,15.30
2019-05-22T20:15:13.822Z,16.67
2019-05-22T20:17:43.331Z,14.63
2019-05-22T20:20:15.727Z,25.63
2019-05-22T20:22:45.745Z,24.10
2019-05-22T20:25:16.566Z,25.20
2019-05-22T20:27:46.258Z,25.57
2019-05-22T20:30:18.220Z,26.63
2019-05-22T20:32:47.526Z,37.60
2019-05-22T20:35:17.666Z,29.20
2019-05-22T20:37:48.367Z,35.57
2019-05-22T20:40:19.231Z,27.53
2019-05-22T20:42:48.567Z,29.53
2019-05-22T20:45:20.913Z,28.03
2019-05-22T20:47:56.194Z,28.67
2019-05-22T20:50:25.230Z,31.60
2019-05-22T20:52:55.014Z,32.03
2019-05-22T20:55:24.480Z,33.70
2019-05-22T20:57:53.979Z,36.60
2019-05-22T21:00:25.649Z,37.53
2019-05-22T21:03:02.415Z,43.77
2019-05-22T21:05:31.698Z,36.37
2019-05-22T21:08:06.996Z,38.97
2019-05-22T21:10:37.379Z,50.33
2019-05-22T21:13:08.452Z,38.07
2019-05-22T21:15:38.550Z,48.33
2019-05-22T21:18:08.123Z,53.07
2019-05-22T21:20:53.609Z,41.50
2019-05-22T21:23:12.410Z,40.23
2019-05-22T21:25:41.522Z,42.77
2019-05-22T21:28:10.591Z,36.07
2019-05-22T21:30:41.518Z,36.53
2019-05-22T21:33:11.116Z,33.73
2019-05-22T21:35:40.436Z,39.20
2019-05-22T21:38:09.354Z,43.87
2019-05-22T21:40:38.826Z,52.53
2019-05-22T21:43:07.767Z,50.77
2019-05-22T21:45:37.162Z,43.20
2019-05-22T21:48:07.520Z,50.93
2019-05-22T21:50:37.961Z,40.77
2019-05-22T21:53:11.520Z,47.77
2019-05-22T21:55:45.408Z,44.83
2019-05-22T21:58:13.494Z,46.33
2019-05-22T22:01:03.759Z,39.27
2019-05-22T22:03:38.499Z,41.57
2019-05-22T22:06:08.297Z,48.03
2019-05-22T22:08:37.838Z,54.60
2019-05-22T22:11:07.530Z,47.97
2019-05-22T22:13:38.058Z,45.87
2019-05-22T22:16:09.020Z,52.10
2019-05-22T22:18:39.947Z,51.43
2019-05-22T22:21:10.713Z,51.27
2019-05-22T22:23:39.635Z,42.07
2019-05-22T22:26:24.739Z,56.63
2019-05-22T22:28:40.795Z,52.23
2019-05-22T22:31:12.070Z,66.00
2019-05-22T22:33:44.653Z,53.90
2019-05-22T22:36:13.655Z,62.13
2019-05-22T22:38:43.572Z,68.63
2019-05-22T22:41:15.459Z,61.37
2019-05-22T22:43:48.311Z,69.33
2019-05-22T22:46:29.951Z,66.53
2019-05-22T22:49:01.737Z,51.77
2019-05-22T22:51:31.511Z,43.17
2019-05-22T22:54:01.082Z,50.67
2019-05-22T22:56:30.809Z,53.30
2019-05-22T22:59:00.474Z,56.83
2019-05-22T23:01:33.092Z,46.10
2019-05-22T23:04:05.261Z,49.40
2019-05-22T23:06:36.387Z,49.77
2019-05-22T23:09:10.179Z,42.87
2019-05-22T23:11:41.649Z,42.90
2019-05-22T23:14:11.290Z,54.20
2019-05-22T23:16:41.770Z,47.10
2019-05-22T23:19:33.701Z,39.33
2019-05-22T23:22:03.278Z,39.17
2019-05-22T23:24:32.730Z,47.50
2019-05-22T23:27:02.018Z,45.43
2019-05-22T23:29:32.709Z,46.60
2019-05-22T23:32:02.346Z,52.43
2019-05-22T23:34:32.030Z,46.13
2019-05-22T23:37:02.783Z,64.20
2019-05-22T23:39:33.299Z,39.30
2019-05-22T23:42:10.002Z,41.60
2019-05-22T23:44:39.775Z,52.23
2019-05-22T23:47:11.226Z,48.13
2019-05-22T23:49:41.328Z,42.90
2019-05-22T23:52:12.487Z,53.23
2019-05-22T23:54:41.956Z,49.77
2019-05-22T23:57:13.034Z,52.27
2019-05-22T23:59:45.746Z,48.30
